Time;durP1;ratioP1;P1;durP2;ratioP2;P2;SDS_P1;SDS_P2;PMS_P1;PMS_P2;Temp;Humidity;BMP_temperature;BMP_pressure;BME280_temperature;BME280_humidity;BME280_pressure;Samples;Min_cycle;Max_cycle;Signal;HPM_P1;HPM_P2
2023/07/17 00:02:15;;;;;;;4.88;2.60;;;;;;;;;;5011373;28;20038;-91
2023/07/17 00:04:40;;;;;;;3.50;2.80;;;;;;;;;;4986037;28;20168;-87
2023/07/17 00:07:06;;;;;;;4.18;3.03;;;;;;;;;;5008995;28;20042;-88
2023/07/17 00:09:31;;;;;;;4.35;2.72;;;;;;;;;;5003638;28;20030;-90
2023/07/17 00:11:56;;;;;;;3.78;2.80;;;;;;;;;;5000453;28;20038;-89
2023/07/17 00:14:22;;;;;;;3.75;3.03;;;;;;;;;;4997147;28;20052;-87
2023/07/17 00:16:47;;;;;;;3.38;2.50;;;;;;;;;;4999946;28;20092;-88
2023/07/17 00:19:13;;;;;;;3.03;2.53;;;;;;;;;;4989937;28;20034;-88
2023/07/17 00:21:38;;;;;;;3.03;2.40;;;;;;;;;;4999903;28;20120;-89
2023/07/17 00:24:04;;;;;;;4.13;2.90;;;;;;;;;;4995903;28;20102;-88
2023/07/17 00:26:30;;;;;;;4.47;2.67;;;;;;;;;;4995768;28;20108;-89
2023/07/17 00:29:25;;;;;;;3.30;2.50;;;;;;;;;;4990585;28;20042;-88
2023/07/17 00:31:52;;;;;;;3.00;2.65;;;;;;;;;;4993948;28;20045;-88
2023/07/17 00:34:21;;;;;;;4.20;2.50;;;;;;;;;;4989295;28;20029;-88
2023/07/17 00:36:47;;;;;;;4.10;2.67;;;;;;;;;;4995062;28;20096;-89
2023/07/17 00:39:18;;;;;;;5.10;2.80;;;;;;;;;;4978945;28;20030;-88
2023/07/17 00:41:44;;;;;;;4.20;2.80;;;;;;;;;;4998894;28;20030;-89
2023/07/17 00:44:10;;;;;;;5.43;2.97;;;;;;;;;;4998745;28;20037;-89
2023/07/17 00:46:36;;;;;;;4.25;2.78;;;;;;;;;;4993706;28;20069;-88
2023/07/17 00:49:06;;;;;;;3.28;2.67;;;;;;;;;;4967650;28;20508;-87
2023/07/17 00:51:32;;;;;;;3.80;2.72;;;;;;;;;;5034441;23;20058;-86
2023/07/17 00:53:59;;;;;;;4.03;2.72;;;;;;;;;;5000961;28;20034;-86
2023/07/17 00:56:27;;;;;;;5.93;2.80;;;;;;;;;;4996404;28;20038;-86
2023/07/17 00:58:53;;;;;;;4.03;3.05;;;;;;;;;;4980019;28;20044;-86
2023/07/17 01:01:19;;;;;;;6.28;2.90;;;;;;;;;;4981996;28;20034;-86
2023/07/17 01:03:45;;;;;;;3.50;2.50;;;;;;;;;;4982168;28;20068;-87
2023/07/17 01:06:11;;;;;;;3.67;2.42;;;;;;;;;;4978137;28;20034;-85
2023/07/17 01:08:38;;;;;;;3.55;2.53;;;;;;;;;;4995038;28;20027;-86
2023/07/17 01:11:04;;;;;;;4.47;2.72;;;;;;;;;;4973641;28;20043;-86
2023/07/17 01:13:30;;;;;;;3.40;2.60;;;;;;;;;;4994927;28;20030;-86
2023/07/17 01:15:55;;;;;;;3.55;2.55;;;;;;;;;;4998115;28;20041;-86
2023/07/17 01:18:21;;;;;;;6.60;2.70;;;;;;;;;;4999094;28;20041;-86
2023/07/17 01:20:48;;;;;;;5.50;2.83;;;;;;;;;;4983754;28;20433;-87
2023/07/17 01:23:14;;;;;;;4.07;2.83;;;;;;;;;;4978165;28;20483;-86
2023/07/17 01:25:39;;;;;;;3.38;2.53;;;;;;;;;;4986861;28;20030;-85
2023/07/17 01:28:05;;;;;;;3.92;2.78;;;;;;;;;;4965150;28;20478;-86
2023/07/17 01:30:30;;;;;;;5.15;2.78;;;;;;;;;;4984424;28;20041;-85
2023/07/17 01:32:56;;;;;;;3.42;2.60;;;;;;;;;;4995611;28;20042;-86
2023/07/17 01:35:23;;;;;;;3.95;2.67;;;;;;;;;;4973998;28;20440;-86
2023/07/17 01:37:48;;;;;;;4.13;2.50;;;;;;;;;;4977230;28;20125;-86
2023/07/17 01:40:15;;;;;;;4.07;2.75;;;;;;;;;;4974692;28;20553;-85
2023/07/17 01:42:40;;;;;;;4.90;2.75;;;;;;;;;;4993521;28;20516;-85
2023/07/17 01:45:06;;;;;;;3.20;2.70;;;;;;;;;;4993650;28;20034;-86
2023/07/17 01:47:32;;;;;;;4.38;3.00;;;;;;;;;;4993749;28;20030;-86
2023/07/17 01:49:57;;;;;;;4.40;2.80;;;;;;;;;;4984775;28;20034;-85
2023/07/17 01:52:23;;;;;;;3.65;2.75;;;;;;;;;;4974353;28;20119;-87
2023/07/17 01:54:48;;;;;;;3.47;2.60;;;;;;;;;;4973183;28;20069;-86
2023/07/17 01:57:14;;;;;;;5.53;3.00;;;;;;;;;;4994099;28;20138;-85
2023/07/17 01:59:39;;;;;;;3.70;2.80;;;;;;;;;;4955563;28;20034;-86
2023/07/17 02:02:05;;;;;;;4.93;2.88;;;;;;;;;;4979404;28;20034;-86
2023/07/17 02:04:31;;;;;;;4.25;2.80;;;;;;;;;;4995999;28;20390;-86
2023/07/17 02:06:56;;;;;;;5.45;2.78;;;;;;;;;;4996061;28;20133;-86
2023/07/17 02:09:24;;;;;;;5.38;2.80;;;;;;;;;;4975179;28;20026;-86
2023/07/17 02:11:50;;;;;;;4.20;3.00;;;;;;;;;;4970971;28;20041;-86
2023/07/17 02:14:16;;;;;;;4.00;2.53;;;;;;;;;;4997620;28;20026;-86
2023/07/17 02:16:42;;;;;;;8.25;3.03;;;;;;;;;;4967306;28;20189;-84
2023/07/17 02:19:08;;;;;;;4.25;2.70;;;;;;;;;;4980282;28;20133;-86
2023/07/17 02:21:33;;;;;;;3.45;2.67;;;;;;;;;;4994577;28;20034;-85
2023/07/17 02:23:59;;;;;;;3.60;2.90;;;;;;;;;;4965700;28;20041;-86
2023/07/17 02:26:25;;;;;;;6.53;2.85;;;;;;;;;;4974279;28;20038;-86
2023/07/17 02:28:50;;;;;;;4.13;2.88;;;;;;;;;;4998712;28;20126;-86
2023/07/17 02:31:16;;;;;;;4.93;3.10;;;;;;;;;;4978893;28;20121;-86
2023/07/17 02:33:41;;;;;;;4.20;2.88;;;;;;;;;;4957571;28;20038;-85
2023/07/17 02:36:09;;;;;;;3.60;2.88;;;;;;;;;;4993639;28;20399;-85
2023/07/17 02:38:34;;;;;;;4.45;3.03;;;;;;;;;;4996779;28;20038;-85
2023/07/17 02:41:00;;;;;;;5.15;3.05;;;;;;;;;;4977537;28;20073;-86
2023/07/17 02:43:27;;;;;;;4.68;3.33;;;;;;;;;;4997106;28;20105;-86
2023/07/17 02:45:52;;;;;;;3.65;3.00;;;;;;;;;;4995547;28;20034;-86
2023/07/17 02:48:18;;;;;;;4.25;2.97;;;;;;;;;;4978522;28;20041;-86
2023/07/17 02:50:43;;;;;;;4.50;3.10;;;;;;;;;;4975223;28;20038;-86
2023/07/17 02:53:09;;;;;;;4.25;3.03;;;;;;;;;;4977510;28;20034;-86
2023/07/17 02:55:34;;;;;;;5.25;3.10;;;;;;;;;;4975289;28;20056;-86
2023/07/17 02:58:00;;;;;;;4.95;3.15;;;;;;;;;;4995028;28;20026;-86
2023/07/17 03:00:25;;;;;;;3.60;2.80;;;;;;;;;;4970784;28;20038;-86
2023/07/17 03:02:51;;;;;;;4.15;3.10;;;;;;;;;;4969206;28;20039;-86
2023/07/17 03:05:17;;;;;;;3.90;3.20;;;;;;;;;;4974551;28;20043;-86
2023/07/17 03:07:46;;;;;;;4.78;3.00;;;;;;;;;;4978756;28;20037;-86
2023/07/17 03:10:13;;;;;;;4.78;2.88;;;;;;;;;;4991490;28;20026;-86
2023/07/17 03:12:39;;;;;;;6.85;3.00;;;;;;;;;;5004727;28;20049;-85
2023/07/17 03:15:06;;;;;;;4.38;3.00;;;;;;;;;;4995763;28;20034;-86
2023/07/17 03:17:32;;;;;;;4.55;2.97;;;;;;;;;;4971246;28;20036;-85
2023/07/17 03:19:59;;;;;;;4.43;3.20;;;;;;;;;;4968517;28;20121;-86
2023/07/17 03:22:26;;;;;;;3.70;2.97;;;;;;;;;;4975514;28;20034;-85
2023/07/17 03:24:53;;;;;;;5.28;2.92;;;;;;;;;;4996135;28;20033;-85
2023/07/17 03:27:18;;;;;;;5.60;3.17;;;;;;;;;;4970398;28;20037;-84
2023/07/17 03:29:46;;;;;;;6.93;3.10;;;;;;;;;;4980165;28;20030;-86
2023/07/17 03:32:12;;;;;;;3.70;2.78;;;;;;;;;;4976166;28;20560;-85
2023/07/17 03:34:38;;;;;;;5.32;3.13;;;;;;;;;;4993827;28;20038;-85
2023/07/17 03:37:03;;;;;;;10.35;3.28;;;;;;;;;;4991630;28;20047;-86
2023/07/17 03:39:29;;;;;;;5.65;3.00;;;;;;;;;;4993268;28;20049;-85
2023/07/17 03:41:54;;;;;;;5.40;3.20;;;;;;;;;;4971051;28;20092;-85
2023/07/17 03:44:20;;;;;;;5.35;4.00;;;;;;;;;;4969906;28;20030;-86
2023/07/17 03:46:46;;;;;;;4.70;3.60;;;;;;;;;;4969354;28;20410;-85
2023/07/17 03:49:12;;;;;;;10.68;3.70;;;;;;;;;;4954242;28;20030;-84
2023/07/17 03:51:38;;;;;;;5.45;3.53;;;;;;;;;;4978412;28;20081;-85
2023/07/17 03:54:06;;;;;;;5.82;3.50;;;;;;;;;;4986472;28;20181;-86
2023/07/17 03:56:32;;;;;;;4.80;3.30;;;;;;;;;;4971914;28;20109;-86
2023/07/17 03:58:58;;;;;;;5.78;3.10;;;;;;;;;;4991787;28;20041;-85
2023/07/17 04:01:24;;;;;;;7.03;3.25;;;;;;;;;;4990900;28;20624;-85
2023/07/17 04:03:50;;;;;;;4.45;3.22;;;;;;;;;;4974403;28;20038;-86
2023/07/17 04:06:16;;;;;;;4.50;3.13;;;;;;;;;;4974807;28;20042;-85
2023/07/17 04:08:41;;;;;;;6.05;3.20;;;;;;;;;;4991419;28;20034;-85
2023/07/17 04:11:07;;;;;;;5.28;3.00;;;;;;;;;;4972106;28;20129;-85
2023/07/17 04:13:34;;;;;;;3.92;3.13;;;;;;;;;;4970420;28;20035;-85
2023/07/17 04:16:01;;;;;;;6.75;3.00;;;;;;;;;;4964181;28;20041;-85
2023/07/17 04:18:27;;;;;;;3.92;3.00;;;;;;;;;;4965115;28;20438;-85
2023/07/17 04:20:52;;;;;;;4.68;2.92;;;;;;;;;;4963863;28;20049;-85
2023/07/17 04:23:18;;;;;;;5.72;3.03;;;;;;;;;;4981374;28;20076;-85
2023/07/17 04:25:49;;;;;;;3.95;2.83;;;;;;;;;;4975613;28;20026;-84
2023/07/17 04:28:16;;;;;;;7.70;3.30;;;;;;;;;;4976820;28;20034;-85
2023/07/17 04:30:42;;;;;;;4.32;3.20;;;;;;;;;;4973390;28;20041;-85
2023/07/17 04:33:10;;;;;;;4.82;3.33;;;;;;;;;;4973709;28;20037;-86
2023/07/17 04:35:37;;;;;;;6.30;3.15;;;;;;;;;;4972795;28;20034;-86
2023/07/17 04:38:03;;;;;;;5.00;3.15;;;;;;;;;;4949574;28;20039;-85
2023/07/17 04:40:30;;;;;;;6.80;3.35;;;;;;;;;;4992869;28;20039;-87
2023/07/17 04:42:59;;;;;;;4.03;3.22;;;;;;;;;;4997564;28;20034;-87
2023/07/17 04:45:25;;;;;;;4.00;3.40;;;;;;;;;;4990018;28;20097;-86
2023/07/17 04:47:52;;;;;;;6.15;3.00;;;;;;;;;;4980488;28;20039;-86
2023/07/17 04:50:18;;;;;;;4.65;3.10;;;;;;;;;;4978100;28;20035;-86
2023/07/17 04:52:44;;;;;;;5.78;3.30;;;;;;;;;;4980901;28;20042;-86
2023/07/17 04:55:09;;;;;;;5.28;3.30;;;;;;;;;;4983134;28;20452;-85
2023/07/17 04:57:35;;;;;;;4.72;3.28;;;;;;;;;;4998903;28;20037;-86
2023/07/17 05:00:00;;;;;;;6.50;3.65;;;;;;;;;;4977169;28;20042;-86
2023/07/17 05:02:26;;;;;;;6.53;3.88;;;;;;;;;;4972884;28;20502;-86
2023/07/17 05:04:51;;;;;;;4.68;3.67;;;;;;;;;;4982822;28;20034;-86
2023/07/17 05:07:18;;;;;;;7.03;3.50;;;;;;;;;;4967700;28;20764;-86
2023/07/17 05:09:44;;;;;;;5.30;3.70;;;;;;;;;;4998479;28;20109;-86
2023/07/17 05:12:09;;;;;;;6.15;3.60;;;;;;;;;;4961558;28;20034;-86
2023/07/17 05:14:36;;;;;;;5.13;3.75;;;;;;;;;;4961003;28;20449;-86
2023/07/17 05:17:03;;;;;;;6.35;4.00;;;;;;;;;;4975748;28;20030;-86
2023/07/17 05:19:28;;;;;;;12.43;6.45;;;;;;;;;;4997732;28;20045;-84
2023/07/17 05:21:54;;;;;;;17.27;5.93;;;;;;;;;;4994816;28;20117;-84
2023/07/17 05:24:19;;;;;;;5.72;2.95;;;;;;;;;;4986435;28;20057;-84
2023/07/17 05:26:46;;;;;;;2.92;1.70;;;;;;;;;;4977356;28;20042;-84
2023/07/17 05:29:11;;;;;;;3.80;2.15;;;;;;;;;;4979566;28;20033;-84
2023/07/17 05:31:37;;;;;;;3.05;1.73;;;;;;;;;;4973694;28;20031;-83
2023/07/17 05:34:03;;;;;;;7.18;2.28;;;;;;;;;;4979565;28;20030;-84
2023/07/17 05:36:30;;;;;;;3.80;2.58;;;;;;;;;;4996596;28;20573;-85
2023/07/17 05:38:55;;;;;;;5.32;2.70;;;;;;;;;;5003707;28;20073;-85
2023/07/17 05:41:21;;;;;;;5.80;2.88;;;;;;;;;;4984632;28;20061;-84
2023/07/17 05:43:47;;;;;;;4.13;2.63;;;;;;;;;;4984368;28;20038;-86
2023/07/17 05:46:15;;;;;;;4.35;3.25;;;;;;;;;;4993349;28;20087;-85
2023/07/17 05:48:41;;;;;;;6.38;3.58;;;;;;;;;;4969240;28;20446;-85
2023/07/17 05:51:08;;;;;;;5.18;3.65;;;;;;;;;;4967471;28;20038;-86
2023/07/17 05:53:34;;;;;;;4.68;3.50;;;;;;;;;;4978771;28;20521;-86
2023/07/17 05:56:00;;;;;;;4.13;3.08;;;;;;;;;;4995209;28;20070;-85
2023/07/17 05:58:27;;;;;;;4.25;2.85;;;;;;;;;;4981140;28;20452;-85
2023/07/17 06:00:53;;;;;;;3.70;2.53;;;;;;;;;;4980381;28;20085;-84
2023/07/17 06:03:20;;;;;;;3.90;2.30;;;;;;;;;;4975242;28;20497;-85
2023/07/17 06:05:45;;;;;;;2.95;2.50;;;;;;;;;;4995192;28;20030;-85
2023/07/17 06:08:11;;;;;;;4.60;3.10;;;;;;;;;;4971322;28;20449;-85
2023/07/17 06:10:36;;;;;;;5.38;3.17;;;;;;;;;;4996902;28;20505;-84
2023/07/17 06:13:02;;;;;;;5.47;3.35;;;;;;;;;;4996108;28;20034;-86
2023/07/17 06:15:28;;;;;;;7.82;3.83;;;;;;;;;;4988816;28;20117;-85
2023/07/17 06:17:53;;;;;;;5.88;3.40;;;;;;;;;;4990194;28;20112;-85
2023/07/17 06:20:20;;;;;;;9.80;3.95;;;;;;;;;;4996651;28;20576;-86
2023/07/17 06:22:46;;;;;;;8.15;3.05;;;;;;;;;;4996914;28;20042;-85
2023/07/17 06:25:12;;;;;;;5.32;2.85;;;;;;;;;;4995854;28;20053;-85
2023/07/17 06:27:38;;;;;;;5.85;3.00;;;;;;;;;;4998069;28;20034;-85
2023/07/17 06:30:05;;;;;;;5.32;3.00;;;;;;;;;;4980453;28;20042;-85
2023/07/17 06:32:31;;;;;;;5.38;2.90;;;;;;;;;;4982344;28;20571;-84
2023/07/17 06:34:56;;;;;;;6.70;3.22;;;;;;;;;;4956587;28;20517;-85
2023/07/17 06:37:22;;;;;;;4.70;2.90;;;;;;;;;;4994427;28;20042;-85
2023/07/17 06:39:48;;;;;;;5.82;3.05;;;;;;;;;;4994399;28;20038;-85
2023/07/17 06:42:13;;;;;;;4.07;2.97;;;;;;;;;;4996190;28;20030;-83
2023/07/17 06:44:39;;;;;;;3.97;2.90;;;;;;;;;;4970399;28;20038;-84
2023/07/17 06:47:05;;;;;;;4.47;3.30;;;;;;;;;;4999149;28;20056;-85
2023/07/17 06:49:31;;;;;;;4.70;3.10;;;;;;;;;;5001622;28;20529;-85
2023/07/17 06:51:56;;;;;;;5.60;3.40;;;;;;;;;;5001200;28;20109;-85
2023/07/17 06:54:21;;;;;;;6.45;3.10;;;;;;;;;;4994295;28;20509;-84
2023/07/17 06:56:47;;;;;;;6.00;2.83;;;;;;;;;;4999139;28;20038;-85
2023/07/17 06:59:12;;;;;;;4.72;2.95;;;;;;;;;;4979727;28;20026;-84
2023/07/17 07:01:38;;;;;;;3.50;2.50;;;;;;;;;;5000438;28;20406;-84
2023/07/17 07:04:03;;;;;;;4.05;2.33;;;;;;;;;;4999182;28;20114;-85
2023/07/17 07:06:29;;;;;;;4.03;2.20;;;;;;;;;;4981261;28;20038;-86
2023/07/17 07:08:54;;;;;;;7.00;2.50;;;;;;;;;;5006340;28;20081;-87
2023/07/17 07:11:20;;;;;;;3.75;2.17;;;;;;;;;;4983067;28;20090;-87
2023/07/17 07:13:46;;;;;;;4.38;2.25;;;;;;;;;;5001751;28;20042;-86
2023/07/17 07:16:11;;;;;;;3.30;2.30;;;;;;;;;;5003453;28;20090;-87
2023/07/17 07:18:36;;;;;;;3.60;2.20;;;;;;;;;;5003306;28;20185;-85
2023/07/17 07:21:03;;;;;;;2.58;2.15;;;;;;;;;;5006405;28;20034;-87
2023/07/17 07:23:28;;;;;;;3.50;2.35;;;;;;;;;;5005632;28;20058;-88
2023/07/17 07:25:54;;;;;;;5.82;2.15;;;;;;;;;;5005701;28;20057;-85
2023/07/17 07:28:21;;;;;;;3.00;2.13;;;;;;;;;;4979348;28;20045;-87
2023/07/17 07:30:47;;;;;;;2.80;1.98;;;;;;;;;;5006905;28;20097;-88
2023/07/17 07:33:13;;;;;;;3.63;2.40;;;;;;;;;;5007037;28;20049;-88
2023/07/17 07:35:43;;;;;;;2.65;1.70;;;;;;;;;;5004326;28;20038;-85
2023/07/17 07:38:09;;;;;;;3.58;2.00;;;;;;;;;;4984159;28;20061;-86
2023/07/17 07:40:34;;;;;;;4.13;1.83;;;;;;;;;;4981174;28;20046;-87
2023/07/17 07:43:00;;;;;;;2.33;1.60;;;;;;;;;;4998648;28;20034;-87
2023/07/17 07:45:25;;;;;;;1.85;1.50;;;;;;;;;;5003156;28;20041;-87
2023/07/17 07:47:51;;;;;;;2.08;1.40;;;;;;;;;;5001867;28;20030;-86
2023/07/17 07:50:16;;;;;;;2.13;1.60;;;;;;;;;;4975051;28;20034;-86
2023/07/17 07:52:42;;;;;;;3.25;1.73;;;;;;;;;;4995998;28;20171;-84
2023/07/17 07:55:07;;;;;;;2.45;1.40;;;;;;;;;;4994281;28;20112;-88
2023/07/17 07:57:33;;;;;;;2.50;1.50;;;;;;;;;;4995911;28;20037;-87
2023/07/17 07:59:58;;;;;;;2.00;1.40;;;;;;;;;;4996529;28;20133;-87
2023/07/17 08:02:24;;;;;;;3.83;1.50;;;;;;;;;;4996874;28;20073;-86
2023/07/17 08:04:50;;;;;;;2.35;1.55;;;;;;;;;;4996975;28;20038;-86
2023/07/17 08:07:16;;;;;;;3.75;1.60;;;;;;;;;;4994991;28;20038;-83
2023/07/17 08:09:41;;;;;;;2.47;1.35;;;;;;;;;;4996540;28;20065;-87
2023/07/17 08:12:07;;;;;;;1.88;1.30;;;;;;;;;;4994947;28;20060;-86
2023/07/17 08:14:32;;;;;;;1.48;1.20;;;;;;;;;;4995351;28;20048;-86
2023/07/17 08:16:58;;;;;;;2.40;1.60;;;;;;;;;;4993656;28;20046;-85
2023/07/17 08:19:24;;;;;;;1.98;1.50;;;;;;;;;;4985808;28;20042;-85
2023/07/17 08:21:49;;;;;;;3.58;1.63;;;;;;;;;;4996705;28;20030;-84
2023/07/17 08:24:15;;;;;;;2.13;1.58;;;;;;;;;;4978047;28;20466;-84
2023/07/17 08:26:40;;;;;;;2.10;1.55;;;;;;;;;;4977739;28;20493;-87
2023/07/17 08:29:06;;;;;;;2.63;1.60;;;;;;;;;;4983524;28;20041;-86
2023/07/17 08:31:32;;;;;;;2.65;1.77;;;;;;;;;;4994765;28;20039;-82
2023/07/17 08:34:01;;;;;;;3.15;2.05;;;;;;;;;;4978285;28;20038;-85
2023/07/17 08:36:28;;;;;;;3.50;1.73;;;;;;;;;;4976118;28;20050;-85
2023/07/17 08:38:53;;;;;;;3.78;1.92;;;;;;;;;;4994859;28;20031;-83
2023/07/17 08:41:19;;;;;;;2.40;2.03;;;;;;;;;;4965657;28;20034;-82
2023/07/17 08:43:45;;;;;;;5.50;2.30;;;;;;;;;;4994613;28;20458;-84
2023/07/17 08:46:12;;;;;;;2.85;2.10;;;;;;;;;;4996602;28;20509;-84
2023/07/17 08:48:40;;;;;;;3.47;2.38;;;;;;;;;;4980887;28;20054;-85
2023/07/17 08:51:08;;;;;;;4.07;2.10;;;;;;;;;;4975693;28;20084;-84
2023/07/17 08:53:35;;;;;;;4.53;2.30;;;;;;;;;;4999080;28;20050;-85
2023/07/17 08:56:01;;;;;;;4.55;2.15;;;;;;;;;;5000947;28;20034;-83
2023/07/17 08:58:28;;;;;;;4.93;2.15;;;;;;;;;;5000029;28;20049;-85
2023/07/17 09:00:54;;;;;;;3.17;2.20;;;;;;;;;;5000513;28;20034;-84
2023/07/17 09:03:19;;;;;;;2.95;2.28;;;;;;;;;;4999794;28;20482;-84
2023/07/17 09:05:45;;;;;;;2.90;2.50;;;;;;;;;;4993426;28;20038;-84
2023/07/17 09:08:12;;;;;;;4.78;2.42;;;;;;;;;;4996724;28;20038;-84
2023/07/17 09:10:38;;;;;;;2.95;2.13;;;;;;;;;;4999361;28;20034;-84
2023/07/17 09:13:04;;;;;;;6.15;2.60;;;;;;;;;;4998778;28;20023;-84
2023/07/17 09:15:31;;;;;;;4.05;2.60;;;;;;;;;;4998492;28;20096;-84
2023/07/17 09:17:57;;;;;;;4.30;2.40;;;;;;;;;;4999136;28;20034;-84
2023/07/17 09:20:23;;;;;;;5.07;2.60;;;;;;;;;;4998608;28;20039;-85
2023/07/17 09:22:49;;;;;;;3.72;2.70;;;;;;;;;;4998657;28;20030;-84
2023/07/17 09:25:16;;;;;;;3.38;2.63;;;;;;;;;;4998168;28;20509;-84
2023/07/17 09:27:51;;;;;;;4.10;2.72;;;;;;;;;;4977449;28;20101;-84
2023/07/17 09:30:21;;;;;;;3.45;2.47;;;;;;;;;;4996291;28;20136;-85
2023/07/17 09:32:48;;;;;;;5.25;2.97;;;;;;;;;;4998487;28;20038;-85
2023/07/17 09:35:14;;;;;;;4.25;2.40;;;;;;;;;;4995329;28;20053;-85
2023/07/17 09:37:44;;;;;;;5.40;2.67;;;;;;;;;;4998398;28;20088;-85
2023/07/17 09:40:13;;;;;;;3.75;2.40;;;;;;;;;;4995889;28;20035;-85
2023/07/17 09:42:41;;;;;;;3.47;2.45;;;;;;;;;;4971840;28;20042;-85
2023/07/17 09:45:08;;;;;;;4.28;2.30;;;;;;;;;;4997009;28;20548;-84
2023/07/17 09:47:35;;;;;;;3.95;2.40;;;;;;;;;;4996023;28;20105;-83
2023/07/17 09:50:02;;;;;;;2.80;2.20;;;;;;;;;;4979900;28;20026;-84
2023/07/17 09:52:29;;;;;;;4.97;2.67;;;;;;;;;;4977842;28;20038;-84
2023/07/17 09:54:55;;;;;;;2.88;2.20;;;;;;;;;;4983551;28;20077;-85
2023/07/17 09:57:28;;;;;;;3.85;2.50;;;;;;;;;;4973855;28;20038;-83
2023/07/17 09:59:58;;;;;;;3.25;2.20;;;;;;;;;;4992656;28;20049;-84
2023/07/17 10:02:29;;;;;;;4.63;2.53;;;;;;;;;;4992650;28;20034;-83
2023/07/17 10:04:57;;;;;;;3.08;2.10;;;;;;;;;;4995683;28;20100;-85
2023/07/17 10:07:24;;;;;;;3.13;2.20;;;;;;;;;;4998221;28;20124;-85
2023/07/17 10:09:50;;;;;;;7.97;2.20;;;;;;;;;;4997895;28;20112;-85
2023/07/17 10:12:17;;;;;;;3.47;2.05;;;;;;;;;;4998747;28;20035;-84
2023/07/17 10:14:45;;;;;;;3.55;2.25;;;;;;;;;;4994045;28;20047;-85
2023/07/17 10:17:31;;;;;;;2.85;2.05;;;;;;;;;;4991795;28;20034;-84
2023/07/17 10:20:03;;;;;;;2.85;2.17;;;;;;;;;;4959163;28;20084;-85
2023/07/17 10:22:35;;;;;;;3.20;2.35;;;;;;;;;;4998538;28;20041;-84
2023/07/17 10:25:27;;;;;;;3.65;2.10;;;;;;;;;;4980836;28;20034;-85
2023/07/17 10:27:58;;;;;;;3.42;2.00;;;;;;;;;;4996445;28;20042;-84
2023/07/17 10:30:35;;;;;;;4.07;2.28;;;;;;;;;;4998416;28;20034;-84
2023/07/17 10:33:14;;;;;;;3.80;2.45;;;;;;;;;;4974395;28;20038;-84
2023/07/17 10:36:00;;;;;;;3.50;2.38;;;;;;;;;;4976568;28;20065;-84
2023/07/17 10:38:27;;;;;;;2.72;1.90;;;;;;;;;;4995147;28;20030;-84
2023/07/17 10:41:12;;;;;;;2.65;2.00;;;;;;;;;;4995900;28;20101;-84
2023/07/17 10:43:52;;;;;;;2.83;1.98;;;;;;;;;;4994339;28;20045;-84
2023/07/17 10:46:18;;;;;;;4.03;1.90;;;;;;;;;;4993451;28;20042;-85
2023/07/17 10:48:43;;;;;;;2.42;2.00;;;;;;;;;;4976933;28;20120;-84
2023/07/17 10:51:09;;;;;;;2.95;2.15;;;;;;;;;;4975228;28;20039;-84
2023/07/17 10:53:34;;;;;;;3.75;2.15;;;;;;;;;;4977077;28;20061;-84
2023/07/17 10:56:00;;;;;;;2.55;1.95;;;;;;;;;;4970068;28;20076;-84
2023/07/17 10:58:26;;;;;;;2.40;1.90;;;;;;;;;;4994424;28;20046;-84
2023/07/17 11:00:52;;;;;;;2.00;1.80;;;;;;;;;;4994239;28;20041;-84
2023/07/17 11:03:22;;;;;;;2.20;1.70;;;;;;;;;;4995219;28;20030;-84
2023/07/17 11:05:48;;;;;;;2.92;2.30;;;;;;;;;;4993304;28;20038;-84
2023/07/17 11:08:14;;;;;;;3.67;1.60;;;;;;;;;;4974143;28;20046;-84
2023/07/17 11:10:44;;;;;;;3.13;1.70;;;;;;;;;;4996684;28;20082;-84
2023/07/17 11:13:10;;;;;;;3.40;2.00;;;;;;;;;;4998414;28;20448;-85
2023/07/17 11:15:36;;;;;;;2.42;1.98;;;;;;;;;;4999371;28;20065;-85
2023/07/17 11:18:04;;;;;;;3.42;1.80;;;;;;;;;;4999552;28;20041;-85
2023/07/17 11:20:31;;;;;;;2.15;1.80;;;;;;;;;;4999467;28;20056;-84
2023/07/17 11:22:57;;;;;;;2.78;2.30;;;;;;;;;;4981485;28;20128;-85
2023/07/17 11:25:28;;;;;;;2.20;1.85;;;;;;;;;;4999113;28;20065;-85
2023/07/17 11:27:55;;;;;;;4.57;2.75;;;;;;;;;;4996661;28;20069;-84
2023/07/17 11:30:25;;;;;;;4.05;2.50;;;;;;;;;;4981224;28;20509;-84
2023/07/17 11:33:07;;;;;;;4.50;2.78;;;;;;;;;;4998520;28;20034;-84
2023/07/17 11:35:41;;;;;;;4.45;3.13;;;;;;;;;;4998187;28;20030;-84
2023/07/17 11:38:15;;;;;;;4.82;3.00;;;;;;;;;;4978674;28;20517;-84
2023/07/17 11:40:54;;;;;;;4.60;2.80;;;;;;;;;;4997573;28;20623;-84
2023/07/17 11:43:28;;;;;;;4.68;2.42;;;;;;;;;;4995885;28;20046;-84
2023/07/17 11:46:02;;;;;;;3.75;2.60;;;;;;;;;;4982256;28;20061;-84
2023/07/17 11:48:32;;;;;;;5.75;2.88;;;;;;;;;;4980943;28;20042;-84
2023/07/17 11:51:00;;;;;;;3.78;2.60;;;;;;;;;;4998195;28;20030;-85
2023/07/17 11:53:27;;;;;;;3.35;2.55;;;;;;;;;;4976489;28;20489;-84
2023/07/17 11:55:52;;;;;;;3.88;2.67;;;;;;;;;;4977967;28;20413;-85
2023/07/17 11:58:19;;;;;;;3.22;2.22;;;;;;;;;;4994601;28;20568;-84
2023/07/17 12:00:46;;;;;;;3.30;2.25;;;;;;;;;;4996763;28;20039;-84
2023/07/17 12:03:12;;;;;;;6.38;2.30;;;;;;;;;;4997582;28;20034;-85
2023/07/17 12:05:38;;;;;;;3.88;2.15;;;;;;;;;;4997670;28;20068;-85
2023/07/17 12:08:04;;;;;;;3.15;2.17;;;;;;;;;;4996414;28;20030;-85
2023/07/17 12:10:31;;;;;;;6.32;2.30;;;;;;;;;;4979635;28;20512;-85
2023/07/17 12:12:57;;;;;;;4.72;2.30;;;;;;;;;;4997448;28;20038;-85
2023/07/17 12:15:23;;;;;;;3.30;2.35;;;;;;;;;;4994720;28;20938;-85
2023/07/17 12:17:49;;;;;;;3.45;2.42;;;;;;;;;;4994551;28;20030;-84
2023/07/17 12:20:15;;;;;;;3.88;2.40;;;;;;;;;;4997029;28;20038;-84
2023/07/17 12:22:41;;;;;;;4.43;2.10;;;;;;;;;;4996906;28;20391;-84
2023/07/17 12:25:08;;;;;;;4.13;2.15;;;;;;;;;;4976889;28;20065;-85
2023/07/17 12:27:33;;;;;;;2.75;2.30;;;;;;;;;;4972141;28;20125;-85
2023/07/17 12:29:58;;;;;;;3.15;2.20;;;;;;;;;;4994049;28;20076;-84
2023/07/17 12:32:24;;;;;;;2.83;2.20;;;;;;;;;;4994679;28;20037;-84
2023/07/17 12:34:50;;;;;;;2.40;2.10;;;;;;;;;;4962995;28;20066;-84
2023/07/17 12:37:16;;;;;;;2.72;2.10;;;;;;;;;;4996236;28;20046;-84
2023/07/17 12:39:41;;;;;;;4.18;2.30;;;;;;;;;;4994557;28;20117;-85
2023/07/17 12:42:07;;;;;;;4.30;2.45;;;;;;;;;;4997188;28;20050;-84
2023/07/17 12:44:33;;;;;;;4.00;2.45;;;;;;;;;;4999861;28;20128;-84
2023/07/17 12:46:59;;;;;;;2.75;2.22;;;;;;;;;;4996292;28;20034;-84
2023/07/17 12:49:24;;;;;;;3.03;2.20;;;;;;;;;;4971328;28;20466;-84
2023/07/17 12:51:51;;;;;;;3.65;2.20;;;;;;;;;;4994653;28;20509;-84
2023/07/17 12:54:18;;;;;;;2.65;2.15;;;;;;;;;;4994573;28;20890;-83
2023/07/17 12:56:43;;;;;;;3.20;2.33;;;;;;;;;;4995350;28;20061;-84
2023/07/17 12:59:09;;;;;;;4.57;2.40;;;;;;;;;;5002202;28;20050;-84
2023/07/17 13:01:35;;;;;;;3.10;2.40;;;;;;;;;;5001648;28;20397;-84
2023/07/17 13:04:00;;;;;;;4.20;2.72;;;;;;;;;;5002570;28;20038;-85
2023/07/17 13:06:26;;;;;;;3.40;2.60;;;;;;;;;;5002089;28;20034;-84
2023/07/17 13:08:51;;;;;;;2.88;2.30;;;;;;;;;;5001036;28;20022;-85
2023/07/17 13:11:17;;;;;;;4.68;2.40;;;;;;;;;;5000656;28;20101;-85
2023/07/17 13:13:43;;;;;;;3.78;2.30;;;;;;;;;;5000981;28;20048;-85
2023/07/17 13:16:09;;;;;;;3.40;2.40;;;;;;;;;;5002111;28;20061;-85
2023/07/17 13:18:36;;;;;;;5.28;2.47;;;;;;;;;;4975042;28;20041;-84
2023/07/17 13:21:02;;;;;;;4.65;2.50;;;;;;;;;;5020162;23;20050;-83
2023/07/17 13:23:27;;;;;;;5.78;2.55;;;;;;;;;;4987132;28;20046;-87
2023/07/17 13:25:53;;;;;;;3.47;2.45;;;;;;;;;;5015134;28;20516;-84
2023/07/17 13:28:18;;;;;;;3.92;2.60;;;;;;;;;;4997460;28;20041;-82
2023/07/17 13:30:44;;;;;;;3.30;2.53;;;;;;;;;;4984285;28;20170;-83
2023/07/17 13:33:10;;;;;;;3.78;2.63;;;;;;;;;;4997250;28;20058;-87
2023/07/17 13:35:35;;;;;;;4.28;2.78;;;;;;;;;;4997650;28;20038;-85
2023/07/17 13:38:01;;;;;;;3.83;2.58;;;;;;;;;;4993730;28;20031;-85
2023/07/17 13:40:26;;;;;;;5.18;2.90;;;;;;;;;;4996166;28;20536;-86
2023/07/17 13:42:52;;;;;;;4.68;2.60;;;;;;;;;;4978555;28;20066;-86
2023/07/17 13:45:17;;;;;;;5.72;3.17;;;;;;;;;;4996344;28;20074;-84
2023/07/17 13:47:43;;;;;;;3.97;2.85;;;;;;;;;;4996910;28;20761;-86
2023/07/17 13:50:09;;;;;;;2.92;2.50;;;;;;;;;;4996960;28;20410;-84
2023/07/17 13:52:34;;;;;;;4.45;2.72;;;;;;;;;;4996555;28;20517;-85
2023/07/17 13:55:00;;;;;;;5.10;2.80;;;;;;;;;;4996591;28;20034;-82
2023/07/17 13:57:25;;;;;;;3.20;2.75;;;;;;;;;;4978127;28;20058;-85
2023/07/17 13:59:51;;;;;;;4.78;2.90;;;;;;;;;;4996057;28;20088;-86
2023/07/17 14:02:16;;;;;;;4.03;2.90;;;;;;;;;;4972220;28;20512;-84
2023/07/17 14:04:42;;;;;;;3.90;3.00;;;;;;;;;;4997947;28;20652;-84
2023/07/17 14:07:10;;;;;;;3.63;2.70;;;;;;;;;;4996590;28;20038;-85
2023/07/17 14:09:35;;;;;;;6.05;3.30;;;;;;;;;;4997131;28;20045;-85
2023/07/17 14:12:01;;;;;;;4.90;2.97;;;;;;;;;;4996873;28;20042;-85
2023/07/17 14:14:28;;;;;;;4.47;2.97;;;;;;;;;;4996255;28;20044;-83
2023/07/17 14:16:54;;;;;;;3.97;3.00;;;;;;;;;;4999966;28;20034;-84
2023/07/17 14:19:20;;;;;;;4.25;2.90;;;;;;;;;;4975101;28;20048;-86
2023/07/17 14:21:46;;;;;;;4.53;3.20;;;;;;;;;;4995953;28;20043;-85
2023/07/17 14:24:11;;;;;;;5.85;2.55;;;;;;;;;;4996053;28;20085;-86
2023/07/17 14:26:37;;;;;;;6.88;3.20;;;;;;;;;;4996254;28;20049;-86
2023/07/17 14:29:03;;;;;;;7.35;3.00;;;;;;;;;;4996082;28;20057;-85
2023/07/17 14:31:30;;;;;;;4.93;2.97;;;;;;;;;;4998046;28;20035;-85
2023/07/17 14:33:55;;;;;;;5.10;2.90;;;;;;;;;;4996882;28;20417;-85
2023/07/17 14:36:21;;;;;;;4.18;2.75;;;;;;;;;;4995658;28;20039;-86
2023/07/17 14:38:46;;;;;;;3.80;2.75;;;;;;;;;;4994669;28;20125;-85
2023/07/17 14:41:12;;;;;;;4.32;2.65;;;;;;;;;;4995533;28;20045;-84